Tiempo atmosférico en la estación meteorológica de Fregenal De La Sierra, Badajoz (586 m.)



Fecha
DESCASC
Temp. máxima en grados centígrados (hora)
DESCASC
Temp. mínima en grados centígrados (hora)
DESCASC
Temp. media en grados centígrados
DESCASC
Racha de viento máxima en m/sg (hora)
DESCASC
Velocidad máxima media en intervalos de 10 minutos(hora)
DESCASC
Precipitaciones diarias en mm
DESCASC
Precipitaciones de 00:00 a 06:00 en mm
DESCASC
Precipitaciones de 06:00 a 12:00 en mm
DESCASC
Precipitaciones de 12:00 a 18:00 en mm
DESCASC
Precipitaciones de 18:00 a 24:00 en mm
DESCASC
15-08-2019 36.6 (17:30) 15 (06:40) 25.8 7.78 (15:40) 3.89 (23:10) 0 0 0 0 0
14-08-2019 35.1 (17:00) 12.5 (00:00) 23.8 7.5 (17:20) 3.89 (17:10) 0 0 0 0 0
13-08-2019 32.7 (17:50) 10.2 (00:00) 21.5 7.22 (16:50) 3.89 (20:20) 0 0 0 0 0
12-08-2019 28 (17:20) 10.6 (00:00) 19.3 10.28 (13:20) 5.83 (12:30) 0 0 0 0 0
11-08-2019 25.8 (16:30) 12.8 (00:00) 19.3 11.67 (17:20) 5.56 (12:30) 0 0 0 0 0
10-08-2019 31.3 (17:20) 13.1 (00:00) 22.2 9.17 (22:10) 4.44 (19:00) 0 0 0 0 0
09-08-2019 30 (16:10) 18.2 (00:00) 24.1 8.89 (17:20) 4.72 (16:40) 0 0 0 0 0
08-08-2019 34.3 (16:10) 14.1 (00:00) 24.2 8.33 (22:40) 4.72 (22:50) 0 0 0 0 0
07-08-2019 28.5 (16:10) 15 (00:00) 21.8 5.56 (00:20) 3.33 (16:50) 0.2 0 0 0 0.2
06-08-2019 33.5 (15:20) 12.4 (00:00) 22.9 8.89 (17:20) 3.89 (17:10) 0 0 0 0 0
05-08-2019 34.9 (15:50) 11.6 (00:00) 23.3 8.61 (17:10) 3.89 (15:20) 0 0 0 0 0
04-08-2019 33.4 (18:50) 13.1 (00:00) 23.3 7.5 (16:40) 3.61 (14:20) 0 0 0 0 0
03-08-2019 33.7 (15:50) 12.2 (00:00) 23 8.33 (17:20) 3.61 (16:10) 0 0 0 0 0
02-08-2019 33.5 (16:30) 9.5 (00:00) 21.5 9.17 (15:00) 3.61 (17:10) 0 0 0 0 0
01-08-2019 32.5 (18:00) 13.3 (00:00) 22.9 7.22 (14:40) 3.89 (23:20) 0 0 0 0 0
31-07-2019 34.5 (17:40) 9.8 (00:00) 22.2 9.17 (22:00) 4.72 (22:00) 0 0 0 0 0
30-07-2019 30.2 (17:10) 9.1 (00:00) 19.7 7.5 (09:50) 4.17 (12:30) 0 0 0 0 0
29-07-2019 29.2 (17:30) 11.4 (00:00) 20.3 8.33 (18:40) 4.72 (19:30) 0 0 0 0 0
28-07-2019 30.2 (17:20) 10.5 (00:00) 20.4 6.94 (17:00) 3.61 (17:10) 0 0 0 0 0
27-07-2019 23.3 (18:40) 13.1 (00:00) 18.2 9.17 (00:20) 4.72 (09:40) 0.6 0 0 0.4 0.2
26-07-2019 27.9 (17:50) 13.7 (00:00) 20.8 10 (17:00) 5.28 (17:00) 0 0 0 0 0
25-07-2019 33.3 (16:30) 14.4 (00:00) 23.8 10.28 (22:20) 5.28 (22:30) 0 0 0 0 0
24-07-2019 36.3 (16:30) 17.8 (00:00) 27 7.22 (17:50) 3.89 (17:50) 0 0 0 0 0
23-07-2019 35.4 (16:40) 18.3 (00:00) 26.9 12.5 (18:10) 4.17 (19:50) 0 0 0 0 0
22-07-2019 38.7 (17:10) 17.6 (00:00) 28.2 7.5 (17:30) 3.33 (17:40) 0 0 0 0 0
21-07-2019 36.8 (18:00) 15.5 (00:00) 26.1 8.33 (16:30) 4.72 (15:40) 0 0 0 0 0
20-07-2019 35.8 (18:20) 16.6 (00:00) 26.2 7.78 (15:50) 3.89 (14:30) 0 0 0 0 0
19-07-2019 38.1 (17:30) 15.6 (00:00) 26.8 8.61 (22:20) 4.17 (14:50) 0 0 0 0 0

Gráficas

Temp. máximas Temp. mínimas Temp. medias Precipitaciones Rachas de viento máximas Velocidades máximas media en intervalos de 10 minutos

Datos horarios

Fecha y hora oficial Temperatura (ºC) Velocidad del viento (km/h) Dirección del viento Racha (km/h) Dirección de racha Precipitación (mm) Presión (hPa) Tendencia (hPa) Humedad (%)
2019-08-17 23:00:00 26.9 12 Noroeste 19 Noroeste 0 -- -- 28
2019-08-17 22:00:00 27.9 11 Noroeste 23 Noroeste 0 -- -- 22
2019-08-17 21:00:00 30.6 12 Noroeste 30 Oeste 0 -- -- 20
2019-08-17 20:00:00 33.7 13 Noroeste 29 Noroeste 0 -- -- 19
2019-08-17 19:00:00 35 13 Noroeste 30 Noroeste 0 -- -- 21
2019-08-17 18:00:00 35.8 14 Oeste 34 Oeste 0 -- -- 22
2019-08-17 17:00:00 36.3 13 Oeste 26 Oeste 0 -- -- 24
2019-08-17 16:00:00 36.6 9 Sudoeste 27 Noroeste 0 -- -- 23
2019-08-17 15:00:00 36.2 10 Sudoeste 27 Oeste 0 -- -- 24
2019-08-17 14:00:00 35.4 10 Oeste 22 Sudoeste 0 -- -- 24
2019-08-17 13:00:00 34.5 7 Sudoeste 21 Sudoeste 0 -- -- 24
2019-08-17 12:00:00 33.3 8 Sudoeste 20 Oeste 0 -- -- 25
2019-08-17 11:00:00 31.1 8 Sur 14 Sur 0 -- -- 24
2019-08-17 10:00:00 24.2 4 Sudeste 6 Sur 0 -- -- 41
2019-08-17 09:00:00 18.3 0 Calma 4 Sur 0 -- -- 56
2019-08-17 08:00:00 13.9 4 Noroeste 7 Noroeste 0 -- -- 66
2019-08-17 07:00:00 13.4 0 Calma 2 Noroeste 0 -- -- 69
2019-08-17 06:00:00 14.9 0 Calma 2 Sudeste 0 -- -- 65
2019-08-17 05:00:00 16.2 0 Calma 3 Norte 0 -- -- 62
2019-08-17 04:00:00 17.7 0 Calma 5 Sudoeste 0 -- -- 58
2019-08-17 03:00:00 19.1 2 Norte 6 Sudoeste 0 -- -- 53
2019-08-17 02:00:00 20.8 0 Calma 5 Sudoeste 0 -- -- 47
2019-08-17 01:00:00 23.2 2 Sudeste 16 Oeste 0 -- -- 43
2019-08-17 00:00:00 25.4 10 Noroeste 19 Noroeste 0 -- -- 39
2019-08-16 23:00:00 27.3 10 Noroeste 16 Noroeste 0 -- -- 33
2019-08-16 22:00:00 28.7 7 Noroeste 15 Noroeste 0 -- -- 32
2019-08-16 21:00:00 31.7 9 Noroeste 21 Noroeste 0 -- -- 28
2019-08-16 20:00:00 34.2 11 Noroeste 31 Norte 0 -- -- 25
2019-08-16 19:00:00 35.4 12 Noroeste 26 Noroeste 0 -- -- 23
2019-08-16 18:00:00 36.2 13 Noroeste 23 Noroeste 0 -- -- 21
2019-08-16 17:00:00 36.8 8 Oeste 23 Oeste 0 -- -- 21
2019-08-16 16:00:00 36.5 6 Oeste 24 Oeste 0 -- -- 23
2019-08-16 15:00:00 35.5 10 Noroeste 24 Noroeste 0 -- -- 25
2019-08-16 14:00:00 35.8 8 Oeste 22 Oeste 0 -- -- 24
2019-08-16 13:00:00 34.3 6 Sudoeste 17 Sur 0 -- -- 26
2019-08-16 12:00:00 32.1 6 Sur 15 Sur 0 -- -- 32
2019-08-16 11:00:00 29 8 Sudeste 13 Sudeste 0 -- -- 39
2019-08-16 10:00:00 24.2 3 Nordeste 6 Norte 0 -- -- 51
2019-08-16 09:00:00 20.1 2 Noroeste 5 Norte 0 -- -- 64
2019-08-16 08:00:00 15.4 3 Norte 4 Noroeste 0 -- -- 73
2019-08-16 07:00:00 15.7 4 Norte 5 Norte 0 -- -- 70
2019-08-16 06:00:00 16.4 3 Noroeste 4 Noroeste 0 -- -- 67
2019-08-16 05:00:00 17.8 0 Calma 5 Oeste 0 -- -- 61
2019-08-16 04:00:00 18.8 0 Calma 5 Noroeste 0 -- -- 61
2019-08-16 03:00:00 20.2 0 Calma 7 Noroeste 0 -- -- 56
2019-08-16 02:00:00 22 2 Noroeste 8 Noroeste 0 -- -- 47
2019-08-16 01:00:00 24.7 3 Sudoeste 15 Noroeste 0 -- -- 41
2019-08-16 00:00:00 26.8 10 Noroeste 23 Noroeste 0 -- -- 37
2019-08-15 23:00:00 27.4 14 Noroeste 25 Noroeste 0 -- -- 33
2019-08-15 22:00:00 29.4 6 Noroeste 15 Noroeste 0 -- -- 32
2019-08-15 21:00:00 32.4 9 Norte 21 Norte 0 -- -- 26
2019-08-15 20:00:00 34.8 10 Norte 22 Noroeste 0 -- -- 24
2019-08-15 19:00:00 35.7 11 Noroeste 28 Norte 0 -- -- 23
2019-08-15 18:00:00 36.5 11 Noroeste 21 Noroeste 0 -- -- 20
2019-08-15 17:00:00 36.2 9 Noroeste 20 Norte 0 -- -- 20
2019-08-15 16:00:00 35.9 9 Oeste 28 Noroeste 0 -- -- 20
2019-08-15 15:00:00 35.4 10 Norte 23 Norte 0 -- -- 22
2019-08-15 14:00:00 34.7 10 Nordeste 21 Nordeste 0 -- -- 23
2019-08-15 13:00:00 34.2 7 Sur 16 Sudeste 0 -- -- 24
2019-08-15 12:00:00 32.5 5 Sudeste 13 Este 0 -- -- 27
2019-08-15 11:00:00 29.3 5 Nordeste 11 Este 0 -- -- 37
2019-08-15 10:00:00 26.1 4 Este 9 Este 0 -- -- 49
2019-08-15 09:00:00 20.1 4 Norte 5 Noroeste 0 -- -- 65
2019-08-15 08:00:00 15.3 2 Noroeste 3 Noroeste 0 -- -- 74
2019-08-15 07:00:00 15 3 Noroeste 6 Norte 0 -- -- 73
2019-08-15 06:00:00 15.5 4 Noroeste 5 Noroeste 0 -- -- 69
2019-08-15 05:00:00 16.2 2 Noroeste 5 Norte 0 -- -- 68
2019-08-15 04:00:00 16.8 0 Calma 6 Noroeste 0 -- -- 64
2019-08-15 03:00:00 17.5 4 Noroeste 6 Norte 0 -- -- 59
2019-08-15 02:00:00 19.7 5 Noroeste 8 Noroeste 0 -- -- 52
2019-08-15 01:00:00 22.2 6 Noroeste 13 Noroeste 0 -- -- 44
2019-08-15 00:00:00 22.9 8 Noroeste 11 Norte 0 -- -- 33
2019-08-14 23:00:00 22.9 5 Noroeste 10 Noroeste 0 -- -- 31
2019-08-14 22:00:00 26.2 6 Noroeste 10 Norte 0 -- -- 26
2019-08-14 21:00:00 30.5 6 Norte 21 Noroeste 0 -- -- 21
2019-08-14 20:00:00 33 14 Norte 23 Noroeste 0 -- -- 18
2019-08-14 19:00:00 33.9 12 Norte 27 Norte 0 -- -- 17
2019-08-14 18:00:00 34.7 8 Noroeste 27 Noroeste 0 -- -- 17
2019-08-14 17:00:00 35.1 6 Norte 24 Noroeste 0 -- -- 17
2019-08-14 16:00:00 34.3 9 Norte 21 Este 0 -- -- 16
2019-08-14 15:00:00 33.2 10 Nordeste 26 Norte 0 -- -- 16
2019-08-14 14:00:00 33.1 6 Norte 19 Nordeste 0 -- -- 17
2019-08-14 13:00:00 32.7 7 Sudeste 18 Sudeste 0 -- -- 17
2019-08-14 12:00:00 31.4 4 Sudeste 13 Este 0 -- -- 18
2019-08-14 11:00:00 29.2 6 Este 13 Nordeste 0 -- -- 22
2019-08-14 10:00:00 25.8 5 Este 8 Este 0 -- -- 29
2019-08-14 09:00:00 17.8 0 Calma 4 Noroeste 0 -- -- 56
2019-08-14 08:00:00 12.5 0 Calma 4 Noroeste 0 -- -- 67
2019-08-14 07:00:00 12.6 4 Noroeste 5 Noroeste 0 -- -- 67
2019-08-14 06:00:00 13 3 Noroeste 6 Noroeste 0 -- -- 66
2019-08-14 05:00:00 13.2 4 Noroeste 6 Noroeste 0 -- -- 62
2019-08-14 04:00:00 14.8 4 Norte 5 Noroeste 0 -- -- 57
2019-08-14 03:00:00 16.3 5 Noroeste 8 Noroeste 0 -- -- 52
2019-08-14 02:00:00 18.8 0 Calma 12 Noroeste 0 -- -- 44
2019-08-14 01:00:00 20.4 8 Noroeste 21 Noroeste 0 -- -- 35
2019-08-14 00:00:00 19.9 6 Noroeste 10 Noroeste 0 -- -- 28
2019-08-13 23:00:00 21.1 8 Noroeste 10 Noroeste 0 -- -- 25
2019-08-13 22:00:00 24.5 8 Norte 14 Norte 0 -- -- 21
2019-08-13 21:00:00 28.7 11 Norte 23 Noroeste 0 -- -- 18
2019-08-13 20:00:00 31.3 12 Norte 22 Norte 0 -- -- 17
2019-08-13 19:00:00 32.3 9 Noroeste 18 Norte 0 -- -- 17
2019-08-13 18:00:00 32.7 9 Noroeste 21 Norte 0 -- -- 16
2019-08-13 17:00:00 32.3 6 Norte 26 Noroeste 0 -- -- 16
2019-08-13 16:00:00 31.8 10 Norte 23 Norte 0 -- -- 15
2019-08-13 15:00:00 31.5 9 Noroeste 20 Noroeste 0 -- -- 17
2019-08-13 14:00:00 30.7 8 Sur 18 Este 0 -- -- 18
2019-08-13 13:00:00 29.2 7 Nordeste 18 Nordeste 0 -- -- 20
2019-08-13 12:00:00 27 7 Nordeste 15 Nordeste 0 -- -- 23
2019-08-13 11:00:00 25.3 7 Norte 15 Norte 0 -- -- 26
2019-08-13 10:00:00 21.7 3 Nordeste 7 Nordeste 0 -- -- 32
2019-08-13 09:00:00 15.8 0 Calma 9 Noroeste 0 -- -- 44
2019-08-13 08:00:00 10.3 5 Noroeste 8 Noroeste 0 -- -- 57
2019-08-13 07:00:00 10.7 3 Noroeste 6 Noroeste 0 -- -- 54
2019-08-13 06:00:00 11.2 4 Noroeste 7 Noroeste 0 -- -- 52
2019-08-13 05:00:00 13.2 5 Noroeste 9 Noroeste 0 -- -- 47
2019-08-13 04:00:00 15.4 5 Norte 11 Norte 0 -- -- 41
2019-08-13 03:00:00 17.2 7 Noroeste 13 Norte 0 -- -- 33
2019-08-13 02:00:00 17.7 8 Noroeste 13 Noroeste 0 -- -- 31
2019-08-13 01:00:00 18.6 8 Noroeste 12 Noroeste 0 -- -- 30
2019-08-13 00:00:00 19.8 8 Noroeste 13 Noroeste 0 -- -- 29
2019-08-12 23:00:00 21.7 7 Noroeste 15 Noroeste 0 -- -- 26
2019-08-12 22:00:00 22.1 8 Noroeste 13 Noroeste 0 -- -- 26
2019-08-12 21:00:00 24.9 10 Norte 21 Norte 0 -- -- 23
2019-08-12 20:00:00 26.4 10 Nordeste 26 Nordeste 0 -- -- 23
2019-08-12 19:00:00 26.4 9 Norte 30 Nordeste 0 -- -- 22
2019-08-12 18:00:00 27.9 14 Norte 29 Nordeste 0 -- -- 20
2019-08-12 17:00:00 27.8 13 Nordeste 31 Nordeste 0 -- -- 20
2019-08-12 16:00:00 27.2 13 Norte 30 Nordeste 0 -- -- 22
2019-08-12 15:00:00 26.4 15 Nordeste 36 Nordeste 0 -- -- 24
2019-08-12 14:00:00 24.7 16 Nordeste 37 Nordeste 0 -- -- 26
2019-08-12 13:00:00 23.5 21 Norte 34 Norte 0 -- -- 26
2019-08-12 12:00:00 22.4 18 Nordeste 36 Nordeste 0 -- -- 34
2019-08-12 11:00:00 19.6 13 Norte 24 Nordeste 0 -- -- 45
2019-08-12 10:00:00 16.9 14 Nordeste 23 Nordeste 0 -- -- 54
2019-08-12 09:00:00 14.7 10 Norte 21 Nordeste 0 -- -- 64
2019-08-12 08:00:00 11.1 10 Norte 13 Norte 0 -- -- 79
2019-08-12 07:00:00 11.1 2 Norte 12 Norte 0 -- -- 78
2019-08-12 06:00:00 11.6 8 Norte 12 Norte 0 -- -- 76
2019-08-12 05:00:00 12.8 6 Noroeste 15 Noroeste 0 -- -- 72
2019-08-12 04:00:00 14.1 7 Norte 22 Noroeste 0 -- -- 66
2019-08-12 03:00:00 14.7 14 Norte 25 Norte 0 -- -- 63
2019-08-12 02:00:00 15.3 11 Noroeste 19 Noroeste 0 -- -- 59
2019-08-12 01:00:00 16.8 12 Norte 23 Norte 0 -- -- 53
2019-08-12 00:00:00 18.7 15 Norte 25 Noroeste 0 -- -- 47
2019-08-11 23:00:00 19.7 11 Noroeste 19 Noroeste 0 -- -- 42
2019-08-11 22:00:00 20.6 9 Noroeste 25 Noroeste 0 -- -- 40
2019-08-11 21:00:00 22.4 12 Norte 28 Norte 0 -- -- 37
2019-08-11 20:00:00 23.8 12 Norte 28 Norte 0 -- -- 34
2019-08-11 19:00:00 23.6 14 Norte 33 Norte 0 -- -- 31
2019-08-11 18:00:00 24.8 18 Norte 42 Noroeste 0 -- -- 30
2019-08-11 17:00:00 25.8 18 Noroeste 33 Noroeste 0 -- -- 29
2019-08-11 16:00:00 24.3 19 Noroeste 36 Noroeste 0 -- -- 31
2019-08-11 15:00:00 25 15 Norte 32 Norte 0 -- -- 27
2019-08-11 14:00:00 23.5 15 Noroeste 31 Noroeste 0 -- -- 30
2019-08-11 13:00:00 22.6 19 Noroeste 37 Norte 0 -- -- 34
2019-08-11 12:00:00 21.1 15 Noroeste 33 Noroeste 0 -- -- 42
2019-08-11 11:00:00 18.8 18 Noroeste 30 Noroeste 0 -- -- 49
2019-08-11 10:00:00 16.1 13 Noroeste 28 Noroeste 0 -- -- 65
2019-08-11 09:00:00 14.2 11 Noroeste 20 Noroeste 0 -- -- 74
2019-08-11 08:00:00 12.8 9 Noroeste 20 Noroeste 0 -- -- 80
2019-08-11 07:00:00 13.3 6 Noroeste 26 Noroeste 0 -- -- 75
2019-08-11 06:00:00 13.9 6 Noroeste 24 Noroeste 0 -- -- 73
2019-08-11 05:00:00 15 10 Noroeste 21 Noroeste 0 -- -- 65
2019-08-11 04:00:00 14.8 3 Norte 9 Oeste 0 -- -- 69
2019-08-11 03:00:00 16 4 Norte 23 Norte 0 -- -- 65
2019-08-11 02:00:00 17 7 Noroeste 18 Noroeste 0 -- -- 66
2019-08-11 01:00:00 18.5 9 Noroeste 22 Noroeste 0 -- -- 63
2019-08-11 00:00:00 20.2 14 Noroeste 29 Noroeste 0 -- -- 57
2019-08-10 23:00:00 21.6 11 Noroeste 33 Norte 0 -- -- 48
2019-08-10 22:00:00 23.2 12 Noroeste 26 Noroeste 0 -- -- 41
2019-08-10 21:00:00 25.8 13 Noroeste 26 Noroeste 0 -- -- 28
2019-08-10 20:00:00 28.6 14 Noroeste 23 Noroeste 0 -- -- 26
2019-08-10 19:00:00 29.9 16 Noroeste 31 Noroeste 0 -- -- 22
2019-08-10 18:00:00 30.6 12 Noroeste 25 Norte 0 -- -- 21
2019-08-10 17:00:00 31 8 Oeste 22 Oeste 0 -- -- 23
2019-08-10 16:00:00 30.3 10 Noroeste 20 Oeste 0 -- -- 26
2019-08-10 15:00:00 28.6 7 Sudeste 17 Noroeste 0 -- -- 33
2019-08-10 14:00:00 27.6 6 Nordeste 15 Sur 0 -- -- 35
2019-08-10 13:00:00 25.9 7 Norte 16 Nordeste 0 -- -- 40
2019-08-10 12:00:00 23.9 7 Norte 18 Norte 0 -- -- 48
2019-08-10 11:00:00 22.1 9 Norte 21 Norte 0 -- -- 53
2019-08-10 10:00:00 20.1 7 Nordeste 13 Nordeste 0 -- -- 63
2019-08-10 09:00:00 17.4 5 Norte 10 Norte 0 -- -- 75
2019-08-10 08:00:00 13.2 5 Noroeste 7 Noroeste 0 -- -- 89
2019-08-10 07:00:00 14.4 0 Calma 11 Norte 0 -- -- 85
2019-08-10 06:00:00 15.1 5 Norte 9 Norte 0 -- -- 85
2019-08-10 05:00:00 15.7 3 Norte 8 Noroeste 0 -- -- 82
2019-08-10 04:00:00 17.2 8 Noroeste 13 Noroeste 0 -- -- 77
2019-08-10 03:00:00 17.9 2 Norte 14 Noroeste 0 -- -- 75
2019-08-10 02:00:00 18.6 5 Noroeste 11 Noroeste 0 -- -- 74
2019-08-10 01:00:00 19 6 Noroeste 10 Noroeste 0 -- -- 79
2019-08-10 00:00:00 20.2 5 Noroeste 18 Noroeste 0 -- -- 77
2019-08-09 23:00:00 21.3 10 Noroeste 18 Noroeste 0 -- -- 74
2019-08-09 22:00:00 22.7 9 Noroeste 22 Noroeste 0 -- -- 69
2019-08-09 21:00:00 24.8 9 Noroeste 25 Noroeste 0 -- -- 63
2019-08-09 20:00:00 26.9 9 Noroeste 22 Noroeste 0 -- -- 58
2019-08-09 19:00:00 27.9 8 Noroeste 23 Noroeste 0 -- -- 56
2019-08-09 18:00:00 27.1 13 Noroeste 32 Noroeste 0 -- -- 61
2019-08-09 17:00:00 29 16 Noroeste 31 Noroeste 0 -- -- 57
2019-08-09 16:00:00 29.6 12 Oeste 31 Oeste 0 -- -- 50
2019-08-09 15:00:00 29.4 11 Oeste 28 Noroeste 0 -- -- 52
2019-08-09 14:00:00 29.8 10 Sudoeste 30 Sudoeste 0 -- -- 50
2019-08-09 13:00:00 26.3 8 Noroeste 20 Oeste 0 -- -- 61
2019-08-09 12:00:00 23.7 6 Sur 16 Oeste 0 -- -- 72
2019-08-09 11:00:00 21.4 6 Oeste 15 Oeste 0 -- -- 83
2019-08-09 10:00:00 20 4 Oeste 14 Noroeste 0 -- -- 89
2019-08-09 09:00:00 19.2 4 Oeste 12 Oeste 0 -- -- 91
2019-08-09 08:00:00 18.9 4 Sudoeste 13 Oeste 0 -- -- 90
2019-08-09 07:00:00 18.7 4 Noroeste 16 Oeste 0 -- -- 91
2019-08-09 06:00:00 18.5 4 Oeste 12 Noroeste 0 -- -- 92
2019-08-09 05:00:00 18.6 3 Oeste 13 Oeste 0 -- -- 92
2019-08-09 04:00:00 18.3 0 Calma 9 Oeste 0 -- -- 89
2019-08-09 03:00:00 19.3 4 Noroeste 14 Oeste 0 -- -- 83
2019-08-09 02:00:00 20.2 3 Oeste 19 Noroeste 0 -- -- 74
2019-08-09 01:00:00 21.3 9 Noroeste 24 Noroeste 0 -- -- 63
2019-08-09 00:00:00 22.4 12 Noroeste 25 Noroeste 0 -- -- 69
2019-08-08 23:00:00 24 15 Noroeste 30 Oeste 0 -- -- 67
2019-08-08 22:00:00 26.3 10 Noroeste 24 Noroeste 0 -- -- 48
2019-08-08 21:00:00 28.1 13 Noroeste 27 Noroeste 0 -- -- 44
2019-08-08 20:00:00 31.1 13 Noroeste 27 Oeste 0 -- -- 37
2019-08-08 19:00:00 32.4 13 Noroeste 28 Noroeste 0 -- -- 33
2019-08-08 18:00:00 33.7 9 Noroeste 27 Oeste 0 -- -- 29
2019-08-08 17:00:00 33.6 9 Noroeste 26 Oeste 0 -- -- 28
2019-08-08 16:00:00 34.2 9 Sudoeste 24 Oeste 0 -- -- 24
2019-08-08 15:00:00 33.1 10 Sudoeste 22 Sudoeste 0 -- -- 27
2019-08-08 14:00:00 31.9 8 Sudoeste 22 Sur 0 -- -- 29
2019-08-08 13:00:00 30.4 9 Sur 18 Sur 0 -- -- 29
2019-08-08 12:00:00 28 5 Este 12 Este 0 -- -- 37
2019-08-08 11:00:00 25.7 3 Sur 9 Sur 0 -- -- 48
2019-08-08 10:00:00 22.4 3 Nordeste 6 Sudeste 0 -- -- 61
2019-08-08 09:00:00 18.1 0 Calma 3 Sudeste 0 -- -- 81
2019-08-08 08:00:00 14.2 2 Noroeste 4 Norte 0 -- -- 92
2019-08-08 07:00:00 14.9 0 Calma 4 Norte 0 -- -- 88
2019-08-08 06:00:00 16.3 0 Calma 13 Oeste 0 -- -- 83
2019-08-08 05:00:00 16 6 Noroeste 11 Noroeste 0 -- -- 84
2019-08-08 04:00:00 17.9 3 Noroeste 14 Noroeste 0 -- -- 76
2019-08-08 03:00:00 19.3 9 Noroeste 16 Oeste 0 -- -- 72
2019-08-08 02:00:00 17.7 0 Calma 4 Noroeste 0 -- -- 70
2019-08-08 01:00:00 18.7 3 Sur 8 Noroeste 0 -- -- 65
2019-08-08 00:00:00 19.8 5 Noroeste 10 Noroeste 0 -- -- 62
2019-08-07 23:00:00 21.7 3 Norte 11 Noroeste 0 -- -- 54
2019-08-07 22:00:00 22.8 9 Noroeste 12 Noroeste 0 -- -- 50
2019-08-07 21:00:00 25.7 5 Noroeste 14 Noroeste 0 -- -- 43
2019-08-07 20:00:00 26.6 5 Norte 15 Norte 0 -- -- 42
2019-08-07 19:00:00 24.8 9 Norte 16 Noroeste 0.2 -- -- 54
2019-08-07 18:00:00 25.2 9 Noroeste 15 Noroeste 0 -- -- 50
2019-08-07 17:00:00 26.2 9 Norte 19 Norte 0 -- -- 47
2019-08-07 16:00:00 28.1 8 Norte 17 Noroeste 0 -- -- 41
2019-08-07 15:00:00 25.8 4 Norte 19 Este 0 -- -- 45
2019-08-07 14:00:00 26.7 10 Norte 17 Norte 0 -- -- 44
2019-08-07 13:00:00 24.7 8 Norte 18 Norte 0 -- -- 50
2019-08-07 12:00:00 25.1 10 Noroeste 19 Noroeste 0 -- -- 45
2019-08-07 11:00:00 22.5 6 Noroeste 15 Oeste 0 -- -- 59
2019-08-07 10:00:00 20.5 2 Sudeste 6 Sudeste 0 -- -- 73
2019-08-07 09:00:00 18.2 4 Nordeste 11 Noroeste 0 -- -- 86
2019-08-07 08:00:00 15.2 2 Sudeste 5 Noroeste 0 -- -- 94
2019-08-07 07:00:00 15.9 0 Calma 6 Noroeste 0 -- -- 90
2019-08-07 06:00:00 16.8 0 Calma 13 Noroeste 0 -- -- 87
2019-08-07 05:00:00 17 3 Sudoeste 5 Oeste 0 -- -- 85
2019-08-07 04:00:00 18.8 3 Sudoeste 17 Noroeste 0 -- -- 77
2019-08-07 03:00:00 19.6 9 Noroeste 19 Noroeste 0 -- -- 73
2019-08-07 02:00:00 20.8 10 Noroeste 19 Noroeste 0 -- -- 67
2019-08-07 01:00:00 22.1 10 Noroeste 20 Noroeste 0 -- -- 61
2019-08-07 00:00:00 23.4 12 Noroeste 22 Noroeste 0 -- -- 56
2019-08-06 23:00:00 24.8 12 Noroeste 20 Noroeste 0 -- -- 51
2019-08-06 22:00:00 26.5 8 Noroeste 20 Noroeste 0 -- -- 44
2019-08-06 21:00:00 29.2 9 Noroeste 19 Noroeste 0 -- -- 36
2019-08-06 20:00:00 31.5 9 Noroeste 24 Sudoeste 0 -- -- 27
2019-08-06 19:00:00 32 12 Noroeste 30 Noroeste 0 -- -- 28
2019-08-06 18:00:00 32.6 12 Noroeste 32 Noroeste 0 -- -- 27
2019-08-06 17:00:00 33.3 11 Noroeste 24 Sudoeste 0 -- -- 28
2019-08-06 16:00:00 33.3 10 Sudoeste 26 Oeste 0 -- -- 28
2019-08-06 15:00:00 33.1 11 Oeste 24 Noroeste 0 -- -- 25
2019-08-06 14:00:00 32.2 10 Oeste 24 Oeste 0 -- -- 27
2019-08-06 13:00:00 31.3 8 Noroeste 24 Noroeste 0 -- -- 28
2019-08-06 12:00:00 30.7 9 Oeste 28 Oeste 0 -- -- 25
2019-08-06 11:00:00 26.4 5 Sudeste 10 Sudeste 0 -- -- 40
2019-08-06 10:00:00 21.1 5 Sudeste 9 Sudeste 0 -- -- 58
2019-08-06 09:00:00 16.9 6 Sur 14 Sur 0 -- -- 69
2019-08-06 08:00:00 14.7 3 Norte 13 Noroeste 0 -- -- 79
2019-08-06 07:00:00 13 3 Norte 8 Noroeste 0 -- -- 78
2019-08-06 06:00:00 13 4 Noroeste 5 Noroeste 0 -- -- 74
2019-08-06 05:00:00 14.1 0 Calma 4 Norte 0 -- -- 72
2019-08-06 04:00:00 15.2 3 Noroeste 4 Noroeste 0 -- -- 66
2019-08-06 03:00:00 17.5 0 Calma 4 Sudoeste 0 -- -- 59
2019-08-06 02:00:00 20 3 Noroeste 15 Oeste 0 -- -- 54
2019-08-06 01:00:00 22.4 7 Noroeste 18 Noroeste 0 -- -- 46
2019-08-06 00:00:00 23.4 8 Noroeste 13 Noroeste 0 -- -- 38
2019-08-05 23:00:00 23.4 8 Noroeste 12 Noroeste 0 -- -- 35
2019-08-05 22:00:00 26.5 5 Noroeste 18 Noroeste 0 -- -- 29
2019-08-05 21:00:00 29.6 9 Noroeste 24 Noroeste 0 -- -- 25
2019-08-05 20:00:00 32 11 Noroeste 28 Noroeste 0 -- -- 22
2019-08-05 19:00:00 33.2 13 Noroeste 24 Noroeste 0 -- -- 19
2019-08-05 18:00:00 33.5 13 Noroeste 31 Norte 0 -- -- 20
2019-08-05 17:00:00 34.2 10 Noroeste 29 Noroeste 0 -- -- 21
2019-08-05 16:00:00 34.8 10 Oeste 26 Oeste 0 -- -- 22
2019-08-05 15:00:00 34.4 6 Sur 19 Sur 0 -- -- 20
2019-08-05 14:00:00 33.5 8 Sudoeste 21 Sudoeste 0 -- -- 18
2019-08-05 13:00:00 32.2 10 Sur 21 Sudoeste 0 -- -- 24
2019-08-05 12:00:00 31.6 6 Sudoeste 18 Sudoeste 0 -- -- 24
2019-08-05 11:00:00 28.2 4 Este 8 Sudeste 0 -- -- 28
2019-08-05 10:00:00 24 4 Sudeste 7 Sudeste 0 -- -- 35
2019-08-05 09:00:00 17.4 0 Calma 2 Nordeste 0 -- -- 73
2019-08-05 08:00:00 11.7 0 Calma 2 Noroeste 0 -- -- 87
2019-08-05 07:00:00 12.4 0 Calma 2 Noroeste 0 -- -- 86
2019-08-05 06:00:00 13.5 0 Calma 5 Sudoeste 0 -- -- 81
2019-08-05 05:00:00 15.2 2 Sudoeste 5 Sudoeste 0 -- -- 76
2019-08-05 04:00:00 15.7 3 Noroeste 5 Noroeste 0 -- -- 74
2019-08-05 03:00:00 16.8 0 Calma 5 Norte 0 -- -- 69
2019-08-05 02:00:00 18.5 3 Oeste 6 Noroeste 0 -- -- 63
2019-08-05 01:00:00 21.1 4 Noroeste 10 Norte 0 -- -- 57
2019-08-05 00:00:00 23.3 6 Noroeste 22 Noroeste 0 -- -- 49
2019-08-04 23:00:00 25.1 12 Noroeste 22 Noroeste 0 -- -- 45
2019-08-04 22:00:00 27.1 10 Noroeste 24 Noroeste 0 -- -- 38
2019-08-04 21:00:00 29.7 12 Noroeste 25 Noroeste 0 -- -- 31
2019-08-04 20:00:00 32.1 12 Noroeste 24 Noroeste 0 -- -- 27
2019-08-04 19:00:00 33.3 8 Noroeste 22 Oeste 0 -- -- 25
2019-08-04 18:00:00 33 10 Norte 21 Noroeste 0 -- -- 24
2019-08-04 17:00:00 32.7 9 Noroeste 27 Noroeste 0 -- -- 26
2019-08-04 16:00:00 32.5 12 Noroeste 22 Oeste 0 -- -- 26
2019-08-04 15:00:00 31.7 10 Noroeste 25 Noroeste 0 -- -- 29
2019-08-04 14:00:00 30.9 10 Noroeste 22 Noroeste 0 -- -- 32
2019-08-04 13:00:00 30 8 Noroeste 23 Oeste 0 -- -- 35
2019-08-04 12:00:00 28.3 7 Oeste 15 Noroeste 0 -- -- 37
2019-08-04 11:00:00 25.2 8 Sudeste 13 Sudeste 0 -- -- 54
2019-08-04 10:00:00 21.6 3 Sudeste 6 Sudeste 0 -- -- 66
2019-08-04 09:00:00 16.3 2 Este 4 Sur 0 -- -- 82
2019-08-04 08:00:00 13.1 0 Calma 4 Norte 0 -- -- 92
2019-08-04 07:00:00 13.2 3 Norte 6 Norte 0 -- -- 89
2019-08-04 06:00:00 14.4 0 Calma 3 Sur 0 -- -- 82
2019-08-04 05:00:00 15.9 0 Calma 8 Noroeste 0 -- -- 78
2019-08-04 04:00:00 17.5 5 Noroeste 8 Noroeste 0 -- -- 68
2019-08-04 03:00:00 18.6 2 Oeste 6 Oeste 0 -- -- 65
2019-08-04 02:00:00 20.9 3 Noroeste 12 Noroeste 0 -- -- 61
2019-08-04 01:00:00 22.4 5 Noroeste 19 Noroeste 0 -- -- 56
2019-08-04 00:00:00 24.2 10 Noroeste 19 Noroeste 0 -- -- 49
2019-08-03 23:00:00 25.1 8 Oeste 17 Oeste 0 -- -- 45
2019-08-03 22:00:00 26.5 6 Noroeste 17 Noroeste 0 -- -- 35
2019-08-03 21:00:00 29.6 7 Noroeste 23 Noroeste 0 -- -- 26
2019-08-03 20:00:00 31.4 12 Noroeste 26 Noroeste 0 -- -- 23
2019-08-03 19:00:00 32.6 12 Noroeste 25 Noroeste 0 -- -- 22
2019-08-03 18:00:00 33.2 10 Noroeste 30 Oeste 0 -- -- 23
2019-08-03 17:00:00 33.3 13 Noroeste 28 Oeste 0 -- -- 24
2019-08-03 16:00:00 33.4 9 Noroeste 24 Sudoeste 0 -- -- 25
2019-08-03 15:00:00 33.3 8 Sudoeste 24 Noroeste 0 -- -- 26
2019-08-03 14:00:00 32.2 7 Noroeste 20 Noroeste 0 -- -- 27
2019-08-03 13:00:00 31.3 9 Sudoeste 23 Sur 0 -- -- 25
2019-08-03 12:00:00 30.3 9 Sudoeste 21 Sudoeste 0 -- -- 27
2019-08-03 11:00:00 28.7 5 Sudoeste 13 Sur 0 -- -- 32
2019-08-03 10:00:00 25.3 5 Sudeste 8 Sudeste 0 -- -- 41
2019-08-03 09:00:00 18.8 0 Calma 2 Noroeste 0 -- -- 65
2019-08-03 08:00:00 12.6 0 Calma -- -- 0 -- -- 83
2019-08-03 07:00:00 12.4 0 Calma 4 Noroeste 0 -- -- 86
2019-08-03 06:00:00 12.9 3 Noroeste 4 Noroeste 0 -- -- 85
2019-08-03 05:00:00 14.3 2 Norte 3 Norte 0 -- -- 77
2019-08-03 04:00:00 15.7 0 Calma 2 Este 0 -- -- 72
2019-08-03 03:00:00 17.6 0 Calma 4 Sudeste 0 -- -- 63
2019-08-03 02:00:00 20.3 0 Calma 12 Noroeste 0 -- -- 60
2019-08-03 01:00:00 22.3 6 Noroeste 21 Noroeste 0 -- -- 53
2019-08-03 00:00:00 24.1 9 Noroeste 19 Oeste 0 -- -- 43
2019-08-02 23:00:00 24.8 8 Noroeste 14 Noroeste 0 -- -- 31
2019-08-02 22:00:00 25.8 6 Noroeste 10 Oeste 0 -- -- 28
2019-08-02 21:00:00 29.7 8 Noroeste 19 Noroeste 0 -- -- 23
2019-08-02 20:00:00 31.7 10 Noroeste 22 Oeste 0 -- -- 22
2019-08-02 19:00:00 32.6 12 Noroeste 26 Noroeste 0 -- -- 21
2019-08-02 18:00:00 32.8 12 Noroeste 26 Norte 0 -- -- 21
2019-08-02 17:00:00 33.4 10 Noroeste 23 Oeste 0 -- -- 20
2019-08-02 16:00:00 33.2 7 Oeste 24 Noroeste 0 -- -- 19
2019-08-02 15:00:00 32.6 11 Sudoeste 33 Sudoeste 0 -- -- 18
2019-08-02 14:00:00 32.3 6 Sur 23 Sudoeste 0 -- -- 17
2019-08-02 13:00:00 31.8 4 Sudoeste 15 Sur 0 -- -- 19
2019-08-02 12:00:00 29.8 7 Sudeste 14 Sur 0 -- -- 21
2019-08-02 11:00:00 26.4 6 Sudeste 10 Sudeste 0 -- -- 29
2019-08-02 10:00:00 21.8 3 Este 5 Sudeste 0 -- -- 41
2019-08-02 09:00:00 14.9 0 Calma 3 Norte 0 -- -- 67
2019-08-02 08:00:00 9.7 2 Norte 4 Norte 0 -- -- 80
2019-08-02 07:00:00 10.3 2 Norte 3 Norte 0 -- -- 80
2019-08-02 06:00:00 11.8 0 Calma 5 Noroeste 0 -- -- 73
2019-08-02 05:00:00 13.3 4 Oeste 5 Oeste 0 -- -- 70
2019-08-02 04:00:00 13.7 3 Noroeste 6 Oeste 0 -- -- 67
2019-08-02 03:00:00 16.2 0 Calma 9 Noroeste 0 -- -- 60
2019-08-02 02:00:00 18.3 3 Norte 9 Noroeste 0 -- -- 53
2019-08-02 01:00:00 21 0 Calma 14 Noroeste 0 -- -- 45
2019-08-02 00:00:00 23.2 10 Noroeste 25 Noroeste 0 -- -- 39
2019-08-01 23:00:00 24.7 11 Noroeste 18 Noroeste 0 -- -- 35
2019-08-01 22:00:00 26.7 9 Noroeste 20 Noroeste 0 -- -- 30
2019-08-01 21:00:00 29.6 12 Noroeste 22 Noroeste 0 -- -- 25
2019-08-01 20:00:00 31.3 12 Noroeste 23 Oeste 0 -- -- 23
2019-08-01 19:00:00 32.1 6 Noroeste 23 Noroeste 0 -- -- 24
2019-08-01 18:00:00 32.5 8 Oeste 25 Noroeste 0 -- -- 21
2019-08-01 17:00:00 32.2 12 Noroeste 25 Noroeste 0 -- -- 22
2019-08-01 16:00:00 31.9 13 Noroeste 24 Noroeste 0 -- -- 24
2019-08-01 15:00:00 31.6 8 Oeste 26 Noroeste 0 -- -- 24
2019-08-01 14:00:00 30.6 13 Oeste 24 Noroeste 0 -- -- 24
2019-08-01 13:00:00 30.2 8 Oeste 23 Sudoeste 0 -- -- 26
2019-08-01 12:00:00 28.6 10 Sudoeste 22 Sur 0 -- -- 29
2019-08-01 11:00:00 27.2 8 Sudoeste 18 Oeste 0 -- -- 31
2019-08-01 10:00:00 24 6 Sudeste 9 Sudeste 0 -- -- 43
2019-08-01 09:00:00 17.2 4 Sur 6 Sur 0 -- -- 60
2019-08-01 08:00:00 13.3 0 Calma 3 Este 0 -- -- 70
2019-08-01 07:00:00 13.6 2 Norte 5 Norte 0 -- -- 71
2019-08-01 06:00:00 13.8 0 Calma 4 Sur 0 -- -- 66
2019-08-01 05:00:00 14.4 2 Norte 3 Noroeste 0 -- -- 65
2019-08-01 04:00:00 16.2 3 Noroeste 5 Noroeste 0 -- -- 60
2019-08-01 03:00:00 18.1 2 Sur 9 Oeste 0 -- -- 54
2019-08-01 02:00:00 21.3 6 Noroeste 18 Noroeste 0 -- -- 45
2019-08-01 01:00:00 21.6 7 Noroeste 14 Oeste 0 -- -- 41
2019-08-01 00:00:00 21.8 2 Norte 15 Noroeste 0 -- -- 43
2019-07-31 23:00:00 23.4 8 Norte 31 Noroeste 0 -- -- 40
2019-07-31 22:00:00 26.7 17 Noroeste 33 Noroeste 0 -- -- 32
2019-07-31 21:00:00 30.1 12 Noroeste 25 Oeste 0 -- -- 21
2019-07-31 20:00:00 32.3 11 Noroeste 27 Noroeste 0 -- -- 20
2019-07-31 19:00:00 33.5 10 Noroeste 27 Oeste 0 -- -- 19
2019-07-31 18:00:00 34.4 9 Oeste 23 Oeste 0 -- -- 18
2019-07-31 17:00:00 34.3 12 Oeste 26 Oeste 0 -- -- 19
2019-07-31 16:00:00 33.8 7 Sudoeste 26 Noroeste 0 -- -- 19
2019-07-31 15:00:00 33.5 13 Noroeste 26 Oeste 0 -- -- 19
2019-07-31 14:00:00 33.5 5 Sudeste 20 Sudeste 0 -- -- 17
2019-07-31 13:00:00 32.6 8 Sur 16 Oeste 0 -- -- 17
2019-07-31 12:00:00 31 6 Sur 13 Sur 0 -- -- 18
2019-07-31 11:00:00 28.7 5 Nordeste 13 Norte 0 -- -- 22
2019-07-31 10:00:00 24.4 3 Este 7 Norte 0 -- -- 30
2019-07-31 09:00:00 17.3 0 Calma 3 Noroeste 0 -- -- 51
2019-07-31 08:00:00 10.6 3 Noroeste 4 Noroeste 0 -- -- 67
2019-07-31 07:00:00 11 0 Calma 10 Noroeste 0 -- -- 65
2019-07-31 06:00:00 9.9 3 Noroeste 4 Noroeste 0 -- -- 69
2019-07-31 05:00:00 10.8 2 Noroeste 4 Norte 0 -- -- 67
2019-07-31 04:00:00 12.2 4 Noroeste 6 Norte 0 -- -- 55
2019-07-31 03:00:00 14.7 0 Calma 5 Sur 0 -- -- 51
2019-07-31 02:00:00 17.4 0 Calma 12 Noroeste 0 -- -- 46
2019-07-31 01:00:00 19.8 7 Noroeste 22 Norte 0 -- -- 36
2019-07-31 00:00:00 18.8 8 Noroeste 12 Norte 0 -- -- 31
2019-07-30 23:00:00 20.1 8 Noroeste 13 Noroeste 0 -- -- 29
2019-07-30 22:00:00 22.9 7 Noroeste 12 Norte 0 -- -- 24
2019-07-30 21:00:00 27.4 8 Norte 18 Norte 0 -- -- 19
2019-07-30 20:00:00 28.9 10 Norte 22 Noroeste 0 -- -- 18
2019-07-30 19:00:00 29.9 8 Norte 19 Norte 0 -- -- 18
2019-07-30 18:00:00 30 9 Norte 24 Norte 0 -- -- 17
2019-07-30 17:00:00 29.8 10 Norte 21 Norte 0 -- -- 19
2019-07-30 16:00:00 28.7 10 Norte 24 Norte 0 -- -- 20
2019-07-30 15:00:00 27.8 13 Norte 26 Nordeste 0 -- -- 22
2019-07-30 14:00:00 26.4 10 Norte 27 Noroeste 0 -- -- 25
2019-07-30 13:00:00 25 14 Norte 26 Norte 0 -- -- 29
2019-07-30 12:00:00 22.3 13 Norte 21 Norte 0 -- -- 35
2019-07-30 11:00:00 20.2 10 Nordeste 20 Nordeste 0 -- -- 43
2019-07-30 10:00:00 17.3 12 Nordeste 27 Nordeste 0 -- -- 54
2019-07-30 09:00:00 14.9 11 Nordeste 19 Nordeste 0 -- -- 65
2019-07-30 08:00:00 9.6 4 Norte 8 Norte 0 -- -- 87
2019-07-30 07:00:00 9.7 3 Norte 7 Noroeste 0 -- -- 84
2019-07-30 06:00:00 10.5 6 Norte 7 Norte 0 -- -- 81
2019-07-30 05:00:00 11.9 3 Norte 8 Noroeste 0 -- -- 75
2019-07-30 04:00:00 13.3 4 Noroeste 13 Noroeste 0 -- -- 68
2019-07-30 03:00:00 15 8 Noroeste 22 Noroeste 0 -- -- 62
2019-07-30 02:00:00 16.1 8 Noroeste 15 Noroeste 0 -- -- 58
2019-07-30 01:00:00 17.7 11 Noroeste 27 Norte 0 -- -- 53
2019-07-30 00:00:00 19.2 13 Noroeste 24 Norte 0 -- -- 48
2019-07-29 23:00:00 21 10 Noroeste 23 Noroeste 0 -- -- 40
2019-07-29 22:00:00 22.9 11 Noroeste 25 Noroeste 0 -- -- 36
2019-07-29 21:00:00 25.5 14 Noroeste 28 Noroeste 0 -- -- 33
2019-07-29 20:00:00 27.3 17 Noroeste 28 Norte 0 -- -- 31
2019-07-29 19:00:00 28.7 14 Noroeste 30 Noroeste 0 -- -- 30
2019-07-29 18:00:00 29.1 12 Noroeste 29 Norte 0 -- -- 31
2019-07-29 17:00:00 28.7 15 Noroeste 27 Norte 0 -- -- 36
2019-07-29 16:00:00 28.6 12 Noroeste 26 Noroeste 0 -- -- 42
2019-07-29 15:00:00 27.8 11 Norte 26 Noroeste 0 -- -- 45
2019-07-29 14:00:00 26.6 8 Noroeste 25 Noroeste 0 -- -- 49
2019-07-29 13:00:00 24.6 12 Noroeste 26 Noroeste 0 -- -- 51
2019-07-29 12:00:00 23.2 13 Noroeste 23 Noroeste 0 -- -- 55
2019-07-29 11:00:00 21.1 13 Noroeste 24 Noroeste 0 -- -- 62
2019-07-29 10:00:00 19.1 13 Noroeste 23 Noroeste 0 -- -- 66
2019-07-29 09:00:00 16.5 7 Noroeste 16 Norte 0 -- -- 59
2019-07-29 08:00:00 11.7 2 Norte 9 Oeste 0 -- -- 73
2019-07-29 07:00:00 12.4 0 Calma 4 Noroeste 0 -- -- 69
2019-07-29 06:00:00 14.1 4 Oeste 8 Noroeste 0 -- -- 75
2019-07-29 05:00:00 15.7 4 Noroeste 9 Noroeste 0 -- -- 74
2019-07-29 04:00:00 16.8 4 Noroeste 7 Noroeste 0 -- -- 72
2019-07-29 03:00:00 18.1 0 Calma 10 Noroeste 0 -- -- 67
2019-07-29 02:00:00 20 7 Noroeste 21 Noroeste 0 -- -- 61
2019-07-29 01:00:00 21.4 10 Noroeste 27 Noroeste 0 -- -- 58
2019-07-29 00:00:00 22.6 13 Noroeste 25 Noroeste 0 -- -- 55
2019-07-28 23:00:00 23.9 8 Noroeste 14 Noroeste 0 -- -- 46
2019-07-28 22:00:00 25.3 7 Noroeste 18 Noroeste 0 -- -- 40
2019-07-28 21:00:00 27.7 10 Noroeste 22 Noroeste 0 -- -- 39
2019-07-28 20:00:00 29.2 8 Noroeste 23 Norte 0 -- -- 37
2019-07-28 19:00:00 29.7 6 Nordeste 22 Noroeste 0 -- -- 34
2019-07-28 18:00:00 30 8 Norte 25 Noroeste 0 -- -- 31
2019-07-28 17:00:00 30 9 Noroeste 25 Noroeste 0 -- -- 29
2019-07-28 16:00:00 28.8 6 Nordeste 23 Norte 0 -- -- 37
2019-07-28 15:00:00 28.9 4 Este 15 Noroeste 0 -- -- 37
2019-07-28 14:00:00 27.1 6 Nordeste 18 Nordeste 0 -- -- 39
2019-07-28 13:00:00 25.9 10 Sur 18 Sur 0 -- -- 43
2019-07-28 12:00:00 24.6 4 Sur 14 Sur 0 -- -- 47
2019-07-28 11:00:00 22.8 4 Sudoeste 9 Este 0 -- -- 54
2019-07-28 10:00:00 19.5 4 Sudeste 9 Sudeste 0 -- -- 73
2019-07-28 09:00:00 14.1 2 Sudeste 3 Sudeste 0 -- -- 98
2019-07-28 08:00:00 10.9 0 Calma 3 Norte 0 -- -- 97
2019-07-28 07:00:00 11.3 0 Calma 2 Noroeste 0 -- -- 96
2019-07-28 06:00:00 11.4 0 Calma 3 Norte 0 -- -- 95
2019-07-28 05:00:00 12.4 0 Calma 2 Este 0 -- -- 94
2019-07-28 04:00:00 13.6 0 Calma 8 Oeste 0 -- -- 92
2019-07-28 03:00:00 14.8 2 Norte 15 Noroeste 0 -- -- 90
2019-07-28 02:00:00 15.8 4 Oeste 15 Oeste 0 -- -- 88
2019-07-28 01:00:00 16.6 6 Noroeste 19 Noroeste 0 -- -- 84
2019-07-28 00:00:00 17.3 8 Noroeste 15 Noroeste 0 -- -- 81
2019-07-27 23:00:00 18.3 5 Noroeste 15 Oeste 0 -- -- 78
2019-07-26 12:00:00 -- -- -- -- -- -- -- -- --
2019-07-26 11:00:00 -- -- -- -- -- -- -- -- --
2019-07-26 10:00:00 -- -- -- -- -- -- -- -- --
2019-07-26 09:00:00 14.4 14 Noroeste 28 Noroeste 0 -- -- 85
2019-07-26 08:00:00 13.7 10 Noroeste 18 Noroeste 0 -- -- 90
2019-07-26 07:00:00 14.6 5 Noroeste 12 Oeste 0 -- -- 88
2019-07-26 06:00:00 16 4 Noroeste 18 Noroeste 0 -- -- 86
2019-07-26 05:00:00 16.9 7 Noroeste 12 Noroeste 0 -- -- 88
2019-07-26 04:00:00 17.3 3 Norte 12 Oeste 0 -- -- 88
2019-07-26 03:00:00 18 3 Oeste 18 Noroeste 0 -- -- 86
2019-07-26 02:00:00 19 3 Oeste 15 Oeste 0 -- -- 82
2019-07-26 01:00:00 20.1 9 Noroeste 24 Noroeste 0 -- -- 79
2019-07-26 00:00:00 21.5 16 Noroeste 33 Noroeste 0 -- -- 76
2019-07-25 23:00:00 23.1 16 Noroeste 37 Noroeste 0 -- -- 69
2019-07-25 22:00:00 26.2 8 Noroeste 16 Noroeste 0 -- -- 40
2019-07-25 21:00:00 28.4 5 Noroeste 23 Noroeste 0 -- -- 30
2019-07-25 20:00:00 31.1 11 Noroeste 24 Oeste 0 -- -- 27
2019-07-25 19:00:00 32 12 Oeste 24 Noroeste 0 -- -- 33
2019-07-25 18:00:00 32.3 12 Noroeste 34 Noroeste 0 -- -- 33
2019-07-25 17:00:00 32.6 11 Oeste 27 Noroeste 0 -- -- 33
2019-07-25 16:00:00 33.1 10 Oeste 30 Noroeste 0 -- -- 31
2019-07-25 15:00:00 32.4 9 Oeste 25 Sur 0 -- -- 30
2019-07-25 14:00:00 32.3 8 Sudoeste 20 Oeste 0 -- -- 31
2019-07-25 13:00:00 30.4 9 Noroeste 21 Noroeste 0 -- -- 38
2019-07-25 12:00:00 29.7 7 Oeste 21 Sur 0 -- -- 38
2019-07-25 11:00:00 29.1 9 Sudoeste 19 Oeste 0 -- -- 36
2019-07-25 10:00:00 27.2 5 Sudeste 9 Sudeste 0 -- -- 40
2019-07-25 09:00:00 21.3 2 Sudeste 4 Oeste 0 -- -- 55
2019-07-25 08:00:00 14.8 2 Norte 4 Noroeste 0 -- -- 77
2019-07-25 07:00:00 14.4 0 Calma 5 Noroeste 0 -- -- 76
2019-07-25 06:00:00 15.5 0 Calma 4 Sur 0 -- -- 70
2019-07-25 05:00:00 16.6 2 Norte 4 Norte 0 -- -- 63
2019-07-25 04:00:00 18.5 0 Calma 5 Sur 0 -- -- 59
2019-07-25 03:00:00 20.8 5 Sur 10 Noroeste 0 -- -- 51
2019-07-25 02:00:00 23 7 Noroeste 18 Noroeste 0 -- -- 43
2019-07-25 01:00:00 24.2 5 Oeste 14 Oeste 0 -- -- 39
2019-07-25 00:00:00 26.1 4 Oeste 15 Sudoeste 0 -- -- 38
2019-07-24 23:00:00 27.9 7 Sudoeste 23 Sudoeste 0 -- -- 42
2019-07-24 22:00:00 29.6 7 Sudoeste 21 Noroeste 0 -- -- 39
2019-07-24 21:00:00 32.5 8 Noroeste 23 Oeste 0 -- -- 29
2019-07-24 20:00:00 34.4 6 Oeste 26 Noroeste 0 -- -- 27
2019-07-24 19:00:00 35.6 10 Oeste 23 Sudoeste 0 -- -- 27
2019-07-24 18:00:00 35.9 9 Oeste 26 Noroeste 0 -- -- 26
2019-07-24 17:00:00 35.9 10 Oeste 26 Noroeste 0 -- -- 26
2019-07-24 16:00:00 35.7 7 Noroeste 25 Oeste 0 -- -- 27
2019-07-24 15:00:00 35.5 8 Sudoeste 21 Noroeste 0 -- -- 26
2019-07-24 14:00:00 34.3 3 Nordeste 19 Sudeste 0 -- -- 28
2019-07-24 13:00:00 33.9 7 Sudeste 19 Este 0 -- -- 28
2019-07-24 12:00:00 32.6 8 Sudeste 15 Sur 0 -- -- 30
2019-07-24 11:00:00 31.3 5 Sudeste 11 Sudoeste 0 -- -- 31
2019-07-24 10:00:00 27.1 3 Sudeste 7 Sudeste 0 -- -- 47
2019-07-24 09:00:00 22.4 3 Sudeste 9 Noroeste 0 -- -- 59
2019-07-24 08:00:00 19.2 5 Noroeste 11 Noroeste 0 -- -- 69
2019-07-24 07:00:00 19.2 5 Norte 14 Noroeste 0 -- -- 66
2019-07-24 06:00:00 18.1 4 Noroeste 5 Norte 0 -- -- 75
2019-07-24 05:00:00 18.6 2 Noroeste 3 Noroeste 0 -- -- 73
2019-07-24 04:00:00 19.4 0 Calma 4 Sudoeste 0 -- -- 69
2019-07-24 03:00:00 21.5 3 Sudoeste 12 Noroeste 0 -- -- 63
2019-07-24 02:00:00 23.3 6 Norte 16 Noroeste 0 -- -- 57
2019-07-24 01:00:00 24.4 6 Noroeste 11 Oeste 0 -- -- 51
2019-07-24 00:00:00 26.1 7 Noroeste 16 Noroeste 0 -- -- 49
2019-07-23 23:00:00 27.5 5 Noroeste 11 Oeste 0 -- -- 52
2019-07-23 22:00:00 29.7 4 Sudoeste 22 Oeste 0 -- -- 43
2019-07-23 21:00:00 31.4 6 Oeste 22 Oeste 0 -- -- 39
2019-07-23 20:00:00 33 12 Noroeste 27 Noroeste 0 -- -- 36
2019-07-23 19:00:00 34.1 13 Noroeste 45 Norte 0 -- -- 34
2019-07-23 18:00:00 35.3 9 Oeste 27 Noroeste 0 -- -- 30
2019-07-23 17:00:00 34.6 10 Oeste 28 Oeste 0 -- -- 32
2019-07-23 16:00:00 34.1 5 Sur 23 Noroeste 0 -- -- 34
2019-07-23 15:00:00 34.4 7 Noroeste 21 Sur 0 -- -- 33
2019-07-23 14:00:00 33.2 7 Sur 20 Sudeste 0 -- -- 34
2019-07-23 13:00:00 32.2 6 Oeste 25 Sudoeste 0 -- -- 34
2019-07-23 12:00:00 30.6 5 Noroeste 13 Oeste 0 -- -- 37
2019-07-23 11:00:00 28.6 7 Oeste 14 Oeste 0 -- -- 37
2019-07-23 10:00:00 26.6 3 Noroeste 8 Sur 0 -- -- 43
2019-07-23 09:00:00 22.2 3 Sudeste 6 Sudeste 0 -- -- 51
2019-07-23 08:00:00 19.2 2 Sur 8 Oeste 0 -- -- 62
2019-07-23 07:00:00 18.4 0 Calma 7 Noroeste 0 -- -- 61
2019-07-23 06:00:00 19.1 0 Calma 4 Sur 0 -- -- 57
2019-07-23 05:00:00 20.1 4 Sur 5 Sudoeste 0 -- -- 55
2019-07-23 04:00:00 21 0 Calma 5 Este 0 -- -- 51
2019-07-23 03:00:00 22.7 3 Oeste 7 Oeste 0 -- -- 46
2019-07-23 02:00:00 23.6 2 Oeste 14 Oeste 0 -- -- 42
2019-07-23 01:00:00 25.9 4 Sur 21 Noroeste 0 -- -- 35
2019-07-23 00:00:00 27.5 10 Noroeste 18 Noroeste 0 -- -- 31
2019-07-22 23:00:00 28.9 4 Noroeste 15 Oeste 0 -- -- 32
2019-07-22 22:00:00 31 3 Sudoeste 14 Oeste 0 -- -- 35
2019-07-22 21:00:00 34.3 8 Noroeste 21 Noroeste 0 -- -- 25
2019-07-22 20:00:00 36.2 8 Noroeste 23 Noroeste 0 -- -- 25
2019-07-22 19:00:00 37 10 Noroeste 26 Noroeste 0 -- -- 24
2019-07-22 18:00:00 38.3 8 Sudoeste 27 Oeste 0 -- -- 23
2019-07-22 17:00:00 38.4 10 Sudoeste 26 Sudoeste 0 -- -- 22
2019-07-22 16:00:00 37.6 6 Norte 24 Nordeste 0 -- -- 22
2019-07-22 15:00:00 36.4 9 Nordeste 18 Norte 0 -- -- 22
2019-07-22 14:00:00 35.7 7 Nordeste 17 Nordeste 0 -- -- 22
2019-07-22 13:00:00 34.7 7 Sudeste 17 Este 0 -- -- 23
2019-07-22 12:00:00 32.9 5 Nordeste 15 Nordeste 0 -- -- 25
2019-07-22 11:00:00 30.8 5 Nordeste 12 Este 0 -- -- 29
2019-07-22 10:00:00 28.2 5 Nordeste 9 Nordeste 0 -- -- 38
2019-07-22 09:00:00 23.1 5 Norte 9 Noroeste 0 -- -- 52
2019-07-22 08:00:00 18.3 0 Calma 2 Norte 0 -- -- 65
2019-07-22 07:00:00 17.9 0 Calma 3 Sudoeste 0 -- -- 66
2019-07-22 06:00:00 17.9 3 Noroeste 4 Noroeste 0 -- -- 62
2019-07-22 05:00:00 18.5 0 Calma 3 Norte 0 -- -- 60
2019-07-22 04:00:00 19.4 3 Norte 4 Norte 0 -- -- 49
2019-07-22 03:00:00 21.3 0 Calma 5 Este 0 -- -- 48
2019-07-22 02:00:00 23.8 2 Sudeste 10 Oeste 0 -- -- 46
2019-07-22 01:00:00 26.2 10 Noroeste 19 Noroeste 0 -- -- 35
2019-07-22 00:00:00 27.1 9 Noroeste 15 Noroeste 0 -- -- 31
2019-07-21 23:00:00 28.5 9 Noroeste 15 Noroeste 0 -- -- 28
2019-07-21 22:00:00 29.8 9 Noroeste 14 Noroeste 0 -- -- 25
2019-07-21 21:00:00 32.8 8 Noroeste 19 Noroeste 0 -- -- 21
2019-07-21 20:00:00 35 8 Noroeste 20 Noroeste 0 -- -- 18
2019-07-21 19:00:00 36 10 Noroeste 25 Norte 0 -- -- 18
2019-07-21 18:00:00 36.8 8 Oeste 19 Noroeste 0 -- -- 18
2019-07-21 17:00:00 36.7 9 Noroeste 30 Noroeste 0 -- -- 20
2019-07-21 16:00:00 36 13 Noroeste 30 Norte 0 -- -- 21
2019-07-21 15:00:00 36 15 Noroeste 27 Noroeste 0 -- -- 20
2019-07-21 14:00:00 36.1 9 Oeste 22 Noroeste 0 -- -- 22
2019-07-21 13:00:00 34.7 9 Noroeste 17 Noroeste 0 -- -- 25
2019-07-21 12:00:00 33.5 4 Nordeste 11 Sudeste 0 -- -- 19
2019-07-21 11:00:00 31.4 4 Sudeste 7 Sudeste 0 -- -- 17
2019-07-21 10:00:00 26.7 2 Sudeste 4 Sudeste 0 -- -- 22
2019-07-21 09:00:00 19.7 0 Calma 3 Norte 0 -- -- 61
2019-07-21 08:00:00 15.7 0 Calma 2 Sur 0 -- -- 66
2019-07-21 07:00:00 15.8 0 Calma 3 Oeste 0 -- -- 72
2019-07-21 06:00:00 16.8 0 Calma 3 Sur 0 -- -- 67
2019-07-21 05:00:00 18.3 0 Calma 5 Oeste 0 -- -- 62
2019-07-21 04:00:00 19.1 0 Calma 5 Este 0 -- -- 60
2019-07-21 03:00:00 21 2 Este 10 Noroeste 0 -- -- 53
2019-07-21 02:00:00 23.1 6 Noroeste 16 Oeste 0 -- -- 47
2019-07-21 01:00:00 24.8 9 Noroeste 22 Noroeste 0 -- -- 40
2019-07-21 00:00:00 26.4 12 Noroeste 27 Noroeste 0 -- -- 42
2019-07-20 23:00:00 28.4 13 Noroeste 23 Noroeste 0 -- -- 35
2019-07-20 22:00:00 29.9 7 Noroeste 26 Noroeste 0 -- -- 28
2019-07-20 21:00:00 32.6 11 Noroeste 25 Noroeste 0 -- -- 26
2019-07-20 20:00:00 34.5 10 Noroeste 24 Oeste 0 -- -- 24
2019-07-20 19:00:00 35 13 Noroeste 28 Noroeste 0 -- -- 24
2019-07-20 18:00:00 35.5 14 Noroeste 27 Norte 0 -- -- 23
2019-07-20 17:00:00 35.5 12 Noroeste 24 Noroeste 0 -- -- 23
2019-07-20 16:00:00 35.4 13 Noroeste 28 Noroeste 0 -- -- 23
2019-07-20 15:00:00 34.7 12 Noroeste 27 Noroeste 0 -- -- 25
2019-07-20 14:00:00 33.8 13 Noroeste 25 Noroeste 0 -- -- 28
2019-07-20 13:00:00 33.3 8 Oeste 19 Noroeste 0 -- -- 27
2019-07-20 12:00:00 32 7 Oeste 14 Oeste 0 -- -- 30
2019-07-20 11:00:00 30.5 5 Norte 15 Sur 0 -- -- 35
2019-07-20 10:00:00 25.2 3 Este 6 Sudeste 0 -- -- 50
2019-07-20 09:00:00 19.9 0 Calma 3 Sudeste 0 -- -- 64
2019-07-20 08:00:00 16.7 0 Calma 3 Sudeste 0 -- -- 72
2019-07-20 07:00:00 17 0 Calma 4 Norte 0 -- -- 70
2019-07-20 06:00:00 17.3 3 Norte 4 Sur 0 -- -- 67
2019-07-20 05:00:00 18.1 3 Norte 4 Norte 0 -- -- 63
2019-07-20 04:00:00 19.3 0 Calma 3 Sudoeste 0 -- -- 60
2019-07-20 03:00:00 21.3 4 Oeste 5 Oeste 0 -- -- 54
2019-07-20 02:00:00 23 0 Calma 9 Norte 0 -- -- 52
2019-07-20 01:00:00 25.2 6 Noroeste 14 Noroeste 0 -- -- 49
2019-07-20 00:00:00 27.3 9 Noroeste 22 Noroeste 0 -- -- 44
2019-07-19 23:00:00 29.1 11 Noroeste 31 Noroeste 0 -- -- 40
2019-07-19 22:00:00 31 6 Noroeste 19 Noroeste 0 -- -- 30
2019-07-19 21:00:00 34.1 9 Noroeste 19 Noroeste 0 -- -- 27
2019-07-19 20:00:00 36.1 10 Noroeste 21 Noroeste 0 -- -- 25
2019-07-19 19:00:00 37.4 6 Oeste 24 Oeste 0 -- -- 24
2019-07-19 18:00:00 37.1 8 Sudeste 21 Oeste 0 -- -- 21
2019-07-19 17:00:00 37.3 11 Sudeste 30 Sur 0 -- -- 21
2019-07-19 16:00:00 37.1 5 Este 23 Sudeste 0 -- -- 22
2019-07-19 15:00:00 35.8 9 Sur 26 Sur 0 -- -- 25
2019-07-19 14:00:00 35.5 8 Sur 22 Sur 0 -- -- 25
2019-07-19 13:00:00 34.9 6 Oeste 20 Sur 0 -- -- 26
2019-07-19 12:00:00 33.4 7 Sur 18 Sudeste 0 -- -- 29
2019-07-19 11:00:00 31.6 7 Sudeste 12 Sur 0 -- -- 30
2019-07-19 10:00:00 28.8 4 Sudeste 8 Sudeste 0 -- -- 32
2019-07-19 09:00:00 22.4 0 Calma 4 Noroeste 0 -- -- 44
2019-07-19 08:00:00 16.1 4 Noroeste 4 Noroeste 0 -- -- 59
2019-07-19 07:00:00 15.6 0 Calma 5 Noroeste 0 -- -- 60
2019-07-19 06:00:00 16.3 0 Calma 4 Norte 0 -- -- 63
2019-07-19 05:00:00 17.1 0 Calma 6 Norte 0 -- -- 62
2019-07-19 04:00:00 18.2 3 Noroeste 6 Noroeste 0 -- -- 60
2019-07-19 03:00:00 19.7 0 Calma 3 Nordeste 0 -- -- 56
2019-07-19 02:00:00 21.7 0 Calma 13 Noroeste 0 -- -- 51
2019-07-19 01:00:00 23.7 6 Noroeste 12 Noroeste 0 -- -- 45
2019-07-19 00:00:00 25.3 7 Oeste 14 Oeste 0 -- -- 45